Time;durP1;ratioP1;P1;durP2;ratioP2;P2;SDS_P1;SDS_P2;PMS_P1;PMS_P2;Temp;Humidity;BMP_temperature;BMP_pressure;BME280_temperature;BME280_humidity;BME280_pressure;Samples;Min_cycle;Max_cycle;Signal;HPM_P1;HPM_P2
2023/12/17 00:04:34;;;;;;;7.30;4.75;;;;;;;9.60;69.53;102379.69;10375489;28;96777;-75
2023/12/17 00:09:37;;;;;;;10.07;4.72;;;;;;;9.60;69.48;102384.06;10389625;28;97300;-75
2023/12/17 00:14:45;;;;;;;7.97;4.45;;;;;;;9.53;70.61;102382.31;10377476;28;96715;-75
2023/12/17 00:19:49;;;;;;;7.35;4.20;;;;;;;9.48;69.50;102386.72;10373933;28;97269;-76
2023/12/17 00:24:52;;;;;;;7.13;3.45;;;;;;;9.46;69.96;102388.47;10372210;28;96808;-77
2023/12/17 00:29:57;;;;;;;7.55;4.18;;;;;;;9.37;70.15;102385.84;10370535;28;96709;-76
2023/12/17 00:35:00;;;;;;;7.93;3.85;;;;;;;9.30;70.85;102389.34;10376040;28;96851;-75
2023/12/17 00:40:05;;;;;;;7.28;3.85;;;;;;;9.27;71.52;102399.84;10374754;28;96767;-76
2023/12/17 00:45:10;;;;;;;7.17;4.43;;;;;;;9.23;70.77;102392.81;10374762;28;97496;-76
2023/12/17 00:50:14;;;;;;;6.13;3.53;;;;;;;9.20;70.72;102393.72;10378580;28;96739;-76
2023/12/17 00:55:17;;;;;;;8.60;4.20;;;;;;;9.18;70.63;102392.81;10375351;28;96791;-76
2023/12/17 01:00:22;;;;;;;8.30;4.38;;;;;;;9.14;70.26;102394.56;10374643;28;96719;-75
2023/12/17 01:05:25;;;;;;;6.30;3.50;;;;;;;9.17;70.46;102390.19;10333866;28;96810;-75
2023/12/17 01:10:29;;;;;;;4.75;3.38;;;;;;;9.17;70.76;102398.09;10371421;28;96652;-76
2023/12/17 01:15:34;;;;;;;7.47;4.32;;;;;;;9.14;70.17;102399.81;10343181;28;96663;-75
2023/12/17 01:20:37;;;;;;;7.20;4.00;;;;;;;9.09;70.93;102400.69;10374568;28;96704;-76
2023/12/17 01:25:41;;;;;;;6.10;3.58;;;;;;;9.11;71.03;102410.34;10374930;28;96776;-76
2023/12/17 01:30:46;;;;;;;7.25;3.55;;;;;;;9.06;70.70;102409.47;10386702;28;96739;-76
2023/12/17 01:35:49;;;;;;;5.53;3.40;;;;;;;9.12;70.89;102401.56;10374267;28;96871;-76
2023/12/17 01:40:53;;;;;;;5.13;3.40;;;;;;;9.00;70.82;102409.44;10373725;28;98467;-76
2023/12/17 01:45:58;;;;;;;5.93;3.50;;;;;;;9.03;70.85;102421.72;10372399;28;96783;-76
2023/12/17 01:51:02;;;;;;;6.22;3.70;;;;;;;9.00;71.22;102417.31;10351062;28;96606;-75
2023/12/17 01:56:07;;;;;;;7.88;3.85;;;;;;;8.95;71.10;102416.44;10371167;28;96748;-75
2023/12/17 02:01:13;;;;;;;5.20;3.58;;;;;;;8.91;71.08;102424.31;10373899;28;96843;-76
2023/12/17 02:06:17;;;;;;;7.13;4.15;;;;;;;8.77;71.98;102431.28;10391646;28;97844;-76
2023/12/17 02:11:20;;;;;;;5.53;3.65;;;;;;;8.77;71.79;102426.03;10373366;28;98178;-76
2023/12/17 02:16:25;;;;;;;7.85;3.92;;;;;;;8.67;72.95;102427.75;10402016;28;96814;-76
2023/12/17 02:21:28;;;;;;;8.48;4.60;;;;;;;8.58;72.85;102427.75;10388411;28;97298;-76
2023/12/17 02:26:33;;;;;;;7.10;4.15;;;;;;;8.59;73.06;102441.72;10373135;28;96812;-76
2023/12/17 02:31:37;;;;;;;7.85;4.60;;;;;;;8.45;73.10;102446.03;10373155;28;96712;-76
2023/12/17 02:36:40;;;;;;;8.10;4.50;;;;;;;8.40;73.58;102451.28;10371084;28;96664;-76
2023/12/17 02:41:47;;;;;;;9.70;5.15;;;;;;;8.33;73.79;102456.47;10372125;28;98855;-76
2023/12/17 02:46:50;;;;;;;9.27;4.40;;;;;;;8.26;74.35;102467.81;10335433;28;96770;-76
2023/12/17 02:51:55;;;;;;;7.20;4.63;;;;;;;8.19;74.20;102461.66;10373061;28;96836;-76
2023/12/17 02:56:59;;;;;;;8.40;4.45;;;;;;;8.15;74.96;102459.88;10372735;28;96695;-75
2023/12/17 03:02:03;;;;;;;7.07;4.95;;;;;;;8.14;75.01;102452.00;10374870;28;97000;-78
2023/12/17 03:07:07;;;;;;;6.50;4.32;;;;;;;8.07;75.06;102445.88;10377331;28;96834;-77
2023/12/17 03:12:12;;;;;;;7.65;4.47;;;;;;;8.07;75.38;102453.72;10379727;28;96828;-77
2023/12/17 03:17:15;;;;;;;7.93;4.30;;;;;;;7.97;75.96;102446.69;10379716;28;96758;-78
2023/12/17 03:22:19;;;;;;;7.72;4.00;;;;;;;7.95;76.20;102451.03;10377516;28;97201;-77
2023/12/17 03:27:24;;;;;;;6.22;3.78;;;;;;;7.89;76.43;102430.91;10357751;28;97039;-77
2023/12/17 03:32:27;;;;;;;5.60;3.60;;;;;;;7.92;76.34;102435.31;10379079;28;97016;-78
2023/12/17 03:37:31;;;;;;;6.88;3.65;;;;;;;7.94;76.39;102431.81;10340297;22;98254;-77
2023/12/17 03:42:36;;;;;;;5.88;3.70;;;;;;;7.97;76.73;102417.84;10311065;28;97797;-77
2023/12/17 03:47:44;;;;;;;5.68;3.72;;;;;;;7.96;77.08;102424.84;10335085;28;97472;-77
2023/12/17 03:52:48;;;;;;;6.95;3.80;;;;;;;7.96;77.13;102419.59;10330750;28;98450;-77
2023/12/17 03:57:53;;;;;;;5.90;3.78;;;;;;;7.86;77.31;102409.03;10321345;28;96843;-77
2023/12/17 04:02:57;;;;;;;6.03;3.92;;;;;;;7.86;77.66;102416.91;10336227;28;97694;-77
2023/12/17 04:08:00;;;;;;;9.25;4.68;;;;;;;7.83;77.70;102398.56;10335558;28;97325;-77
2023/12/17 04:13:05;;;;;;;7.85;4.22;;;;;;;7.78;77.88;102389.78;10326693;28;98497;-77
2023/12/17 04:18:08;;;;;;;7.70;4.10;;;;;;;7.77;77.74;102390.66;10314166;28;97435;-77
2023/12/17 04:23:12;;;;;;;6.82;4.10;;;;;;;7.77;78.22;102391.53;10331019;28;97758;-77
2023/12/17 04:28:17;;;;;;;5.65;3.75;;;;;;;7.73;78.45;102379.28;10332511;28;98419;-77
2023/12/17 04:33:20;;;;;;;6.93;3.88;;;;;;;7.67;78.77;102394.06;10332766;28;96777;-77
2023/12/17 04:38:24;;;;;;;7.93;3.33;;;;;;;7.67;78.58;102392.34;10316908;28;96801;-77
2023/12/17 04:43:29;;;;;;;6.03;3.42;;;;;;;7.65;78.24;102388.84;10332951;28;96908;-77
2023/12/17 04:48:33;;;;;;;5.82;3.53;;;;;;;7.65;78.88;102390.56;10327190;28;98138;-77
2023/12/17 04:53:36;;;;;;;5.90;3.50;;;;;;;7.60;78.91;102389.66;10311724;28;97564;-78
2023/12/17 04:58:41;;;;;;;6.40;3.65;;;;;;;7.62;78.80;102395.78;10332083;28;96866;-77
2023/12/17 05:03:44;;;;;;;6.20;3.45;;;;;;;7.63;79.10;102385.31;10327954;28;96931;-77
2023/12/17 05:08:48;;;;;;;6.85;3.20;;;;;;;7.65;78.88;102388.84;10321045;28;98274;-78
2023/12/17 05:13:53;;;;;;;6.28;3.58;;;;;;;7.61;78.86;102387.09;10324210;28;96823;-77
2023/12/17 05:18:56;;;;;;;5.80;3.55;;;;;;;7.58;79.11;102371.31;10313825;28;96962;-77
2023/12/17 05:24:00;;;;;;;5.35;3.38;;;;;;;7.50;78.89;102386.13;10305862;28;96947;-77
2023/12/17 05:29:05;;;;;;;5.07;3.20;;;;;;;7.54;78.91;102385.28;10333659;28;97135;-78
2023/12/17 05:34:09;;;;;;;6.30;3.42;;;;;;;7.53;79.07;102382.63;10325521;28;97627;-78
2023/12/17 05:39:13;;;;;;;5.60;3.40;;;;;;;7.47;79.11;102393.97;10327696;28;98718;-77
2023/12/17 05:44:17;;;;;;;7.55;3.53;;;;;;;7.58;79.22;102389.66;10329970;28;96737;-77
2023/12/17 05:49:21;;;;;;;7.35;3.75;;;;;;;7.55;78.93;102392.25;10327603;28;97244;-77
2023/12/17 05:54:24;;;;;;;7.05;3.58;;;;;;;7.53;79.33;102395.72;10321565;28;96916;-77
2023/12/17 05:59:29;;;;;;;6.47;2.90;;;;;;;7.54;79.68;102394.88;10320522;28;98181;-77
2023/12/17 06:04:33;;;;;;;7.10;3.63;;;;;;;7.51;79.68;102406.19;10324179;28;97052;-78
2023/12/17 06:09:36;;;;;;;5.32;3.13;;;;;;;7.53;79.53;102401.84;10328935;28;96977;-78
2023/12/17 06:14:41;;;;;;;5.97;3.63;;;;;;;7.59;79.43;102422.88;10326998;28;97016;-77
2023/12/17 06:19:45;;;;;;;;;;;;;;;7.51;79.25;102415.81;10323623;28;97665;-77
2023/12/17 06:24:48;;;;;;;4.90;3.13;;;;;;;7.48;79.12;102414.03;10311507;28;97148;-77
2023/12/17 06:29:54;;;;;;;7.88;3.55;;;;;;;7.50;79.17;102406.19;10312424;28;98339;-78
2023/12/17 06:34:57;;;;;;;6.18;3.40;;;;;;;7.54;79.42;102421.06;10332406;28;96793;-78
2023/12/17 06:40:01;;;;;;;7.82;3.67;;;;;;;7.57;79.43;102427.22;10328982;28;97915;-78
2023/12/17 06:45:07;;;;;;;7.20;3.63;;;;;;;7.53;79.09;102430.66;10324780;28;97903;-77
2023/12/17 06:50:11;;;;;;;4.50;3.00;;;;;;;7.54;78.85;102437.69;10331177;28;96911;-78
2023/12/17 06:55:15;;;;;;;6.90;3.63;;;;;;;7.58;78.97;102431.56;10330398;28;98461;-77
2023/12/17 07:00:20;;;;;;;4.55;2.80;;;;;;;7.54;78.97;102437.69;10318262;28;96828;-80
2023/12/17 07:05:23;;;;;;;;;;;;;;;7.51;78.96;102436.78;10308947;28;97015;-77
2023/12/17 07:10:27;;;;;;;4.88;2.83;;;;;;;7.54;78.52;102437.69;10312189;28;97645;-74
2023/12/17 07:15:31;;;;;;;4.93;3.00;;;;;;;7.53;79.32;102440.25;10334430;28;96728;-75
2023/12/17 07:20:35;;;;;;;5.40;3.60;;;;;;;7.50;78.82;102453.34;10329808;28;96781;-74
2023/12/17 07:25:38;;;;;;;3.63;2.85;;;;;;;7.52;78.42;102457.75;10329751;28;97045;-73
2023/12/17 07:30:43;;;;;;;3.67;2.55;;;;;;;7.48;78.74;102452.44;10320609;28;98741;-74
2023/12/17 07:35:47;;;;;;;4.15;2.47;;;;;;;7.46;78.57;102462.06;10327107;28;98112;-74
2023/12/17 07:40:50;;;;;;;4.13;2.80;;;;;;;7.45;78.41;102455.06;10327151;28;98131;-75
2023/12/17 07:45:55;;;;;;;6.22;3.08;;;;;;;7.49;78.33;102470.78;10320746;28;98238;-75
2023/12/17 07:51:01;;;;;;;5.05;2.97;;;;;;;7.44;78.42;102469.03;10311602;28;96814;-74
2023/12/17 07:56:05;;;;;;;5.00;2.80;;;;;;;7.46;78.56;102469.91;10318404;28;98129;-75
2023/12/17 08:01:10;;;;;;;4.43;2.40;;;;;;;7.49;78.22;102469.94;10320438;28;97181;-74
2023/12/17 08:06:13;;;;;;;5.95;2.85;;;;;;;7.48;78.10;102479.53;10305979;28;96937;-75
2023/12/17 08:11:17;;;;;;;3.85;2.45;;;;;;;7.42;77.90;102483.84;10328004;28;96958;-77
2023/12/17 08:16:22;;;;;;;5.60;3.20;;;;;;;7.50;77.73;102487.41;10331483;28;96774;-77
2023/12/17 08:21:26;;;;;;;5.32;3.05;;;;;;;7.46;77.53;102483.03;10301362;28;98175;-79
2023/12/17 08:26:29;;;;;;;5.85;2.97;;;;;;;7.54;77.68;102492.69;10312839;28;96798;-77
2023/12/17 08:31:35;;;;;;;6.13;2.97;;;;;;;7.52;77.17;102494.41;10292533;28;96929;-78
2023/12/17 08:36:41;;;;;;;4.68;2.95;;;;;;;7.51;77.12;102497.88;10293932;28;98735;-82
2023/12/17 08:41:44;;;;;;;4.10;2.42;;;;;;;7.56;76.98;102495.31;10300112;28;98135;-79
2023/12/17 08:46:49;;;;;;;4.85;3.03;;;;;;;7.62;76.97;102511.06;10299113;28;98478;-78
2023/12/17 08:51:52;;;;;;;3.97;2.53;;;;;;;7.67;76.61;102493.66;10295128;28;97557;-76
2023/12/17 08:56:56;;;;;;;5.43;3.22;;;;;;;7.73;76.22;102510.31;10295547;28;98692;-79
2023/12/17 09:02:01;;;;;;;4.82;2.80;;;;;;;7.66;76.51;102525.97;10303465;28;96922;-80
2023/12/17 09:07:04;;;;;;;5.28;2.92;;;;;;;7.70;76.31;102522.50;10321455;28;96771;-79
2023/12/17 09:12:09;;;;;;;5.55;2.67;;;;;;;7.61;76.40;102532.91;10323232;28;96806;-80
2023/12/17 09:17:14;;;;;;;3.70;2.42;;;;;;;7.63;76.33;102525.94;10321814;28;97677;-80
2023/12/17 09:22:18;;;;;;;4.63;2.70;;;;;;;7.65;76.40;102550.41;10331048;28;97285;-79
2023/12/17 09:27:22;;;;;;;3.92;2.60;;;;;;;7.74;76.18;102545.25;10323504;28;97150;-79
2023/12/17 09:32:27;;;;;;;6.32;2.90;;;;;;;7.73;76.18;102556.59;10312745;28;96838;-79
2023/12/17 09:37:30;;;;;;;4.55;2.47;;;;;;;7.77;75.88;102574.13;10305577;28;96828;-80
2023/12/17 09:42:34;;;;;;;5.88;2.90;;;;;;;7.71;76.02;102566.19;10294772;28;96922;-79
2023/12/17 09:47:39;;;;;;;4.50;2.28;;;;;;;7.68;75.75;102574.88;10301135;28;96857;-80
2023/12/17 09:52:43;;;;;;;5.40;2.80;;;;;;;7.68;75.75;102592.38;10306672;28;96849;-79
2023/12/17 09:57:46;;;;;;;3.70;2.15;;;;;;;7.71;75.23;102585.41;10321746;28;97191;-79
2023/12/17 10:02:51;;;;;;;3.90;2.22;;;;;;;7.72;75.29;102588.88;10323892;28;97206;-79
2023/12/17 10:07:56;;;;;;;3.95;2.35;;;;;;;7.81;74.90;102596.84;10310079;28;97129;-79
2023/12/17 10:13:00;;;;;;;4.23;2.40;;;;;;;7.90;74.50;102608.31;10315291;28;96921;-78
2023/12/17 10:18:05;;;;;;;3.17;2.15;;;;;;;7.96;73.82;102586.50;10309575;28;96972;-76
2023/12/17 10:23:08;;;;;;;;;;;;;;;8.13;73.46;102586.63;10328491;28;96847;-79
2023/12/17 10:28:13;;;;;;;3.08;1.92;;;;;;;8.24;73.34;102584.97;10321169;28;97143;-77
2023/12/17 10:33:23;;;;;;;4.97;2.40;;;;;;;8.43;72.70;102587.72;10318170;28;97684;-78
2023/12/17 10:38:28;;;;;;;3.70;2.55;;;;;;;8.35;72.52;102596.41;10320538;28;96775;-77
2023/12/17 10:43:33;;;;;;;4.27;2.57;;;;;;;8.30;72.67;102603.34;10289575;28;97116;-77
2023/12/17 10:48:39;;;;;;;4.28;2.38;;;;;;;8.36;72.67;102585.91;10283781;28;98204;-78
2023/12/17 10:53:42;;;;;;;4.65;2.42;;;;;;;8.30;72.83;102585.00;10283908;28;97513;-78
2023/12/17 10:58:47;;;;;;;3.85;2.50;;;;;;;8.21;72.69;102583.19;10278859;28;97223;-78
2023/12/17 11:03:52;;;;;;;4.05;2.25;;;;;;;8.25;72.99;102579.72;10268790;28;97244;-79
2023/12/17 11:08:55;;;;;;;;;;;;;;;8.09;73.33;102574.34;10284997;28;96595;-79
2023/12/17 11:14:00;;;;;;;4.05;1.95;;;;;;;8.19;72.58;102579.69;10275755;28;97448;-78
2023/12/17 11:19:05;;;;;;;5.03;2.57;;;;;;;8.02;73.37;102573.44;10274521;28;97684;-79
2023/12/17 11:24:09;;;;;;;3.40;2.40;;;;;;;8.08;73.06;102583.09;10283753;28;97510;-79
2023/12/17 11:29:37;;;;;;;3.90;2.47;;;;;;;8.13;72.93;102569.16;10284856;28;96855;-79
2023/12/17 11:34:48;;;;;;;4.47;2.55;;;;;;;8.16;72.96;102566.56;10291632;28;98426;-79
2023/12/17 11:39:53;;;;;;;4.22;2.55;;;;;;;8.26;72.88;102555.25;10306373;28;98243;-79
2023/12/17 11:44:56;;;;;;;4.57;2.70;;;;;;;8.32;72.53;102543.94;10327830;28;96929;-79
2023/12/17 11:50:02;;;;;;;3.75;2.10;;;;;;;8.26;72.60;102539.50;10315211;28;97403;-79
2023/12/17 11:55:07;;;;;;;6.35;3.22;;;;;;;8.33;72.51;102535.16;10303917;28;97235;-79
2023/12/17 12:00:12;;;;;;;4.55;2.70;;;;;;;8.25;72.62;102531.63;10322847;28;97095;-79
2023/12/17 12:05:18;;;;;;;5.40;2.92;;;;;;;8.36;72.80;102528.19;10336477;28;96674;-79
2023/12/17 12:10:22;;;;;;;3.70;2.40;;;;;;;8.51;72.30;102530.94;10334148;28;96897;-77
2023/12/17 12:15:26;;;;;;;6.43;3.57;;;;;;;8.42;72.20;102519.50;10321606;28;96863;-77
2023/12/17 12:20:37;;;;;;;5.38;2.67;;;;;;;8.45;72.47;102515.13;10304439;28;98233;-79
2023/12/17 12:25:42;;;;;;;3.78;2.40;;;;;;;8.44;72.66;102517.75;10312934;28;97691;-80
2023/12/17 12:30:46;;;;;;;6.17;3.73;;;;;;;8.65;72.24;102508.22;10311127;28;98868;-78
2023/12/17 12:36:04;;;;;;;4.30;2.87;;;;;;;8.72;71.98;102512.63;10323150;28;96929;-80
2023/12/17 12:41:12;;;;;;;4.53;2.63;;;;;;;8.75;71.90;102504.78;10272123;28;96859;-79
2023/12/17 12:46:15;;;;;;;4.47;2.90;;;;;;;8.77;71.59;102497.81;10297188;28;97990;-78
2023/12/17 12:51:20;;;;;;;5.10;2.92;;;;;;;8.83;71.19;102494.28;10298218;28;98834;-79
2023/12/17 12:56:24;;;;;;;4.03;2.70;;;;;;;8.70;71.82;102505.63;10305132;28;97936;-81
2023/12/17 13:01:27;;;;;;;4.63;2.75;;;;;;;8.65;71.30;102496.88;10265584;28;97191;-80
2023/12/17 13:06:32;;;;;;;6.03;2.80;;;;;;;8.60;71.77;102495.97;10272573;28;97324;-80
2023/12/17 13:11:36;;;;;;;4.03;2.53;;;;;;;8.71;71.88;102489.88;10257206;28;98086;-80
2023/12/17 13:16:40;;;;;;;4.45;2.97;;;;;;;9.86;68.58;102485.69;10253287;28;97384;-80
2023/12/17 13:21:44;;;;;;;5.05;2.88;;;;;;;10.68;66.14;102472.28;10257199;28;96895;-82
2023/12/17 13:26:48;;;;;;;6.10;2.47;;;;;;;11.53;64.36;102473.50;10256421;28;96711;-81
2023/12/17 13:31:52;;;;;;;5.63;2.63;;;;;;;10.34;65.61;102475.91;10273305;28;97516;-82
2023/12/17 13:36:58;;;;;;;5.18;3.10;;;;;;;9.76;68.06;102472.56;10273775;28;99833;-80
2023/12/17 13:42:01;;;;;;;4.65;2.90;;;;;;;9.18;69.50;102463.75;10276177;28;98389;-80
2023/12/17 13:47:06;;;;;;;5.05;3.15;;;;;;;9.10;69.08;102458.47;10277973;28;97300;-79
2023/12/17 13:52:11;;;;;;;5.53;3.33;;;;;;;8.90;70.44;102454.94;10273762;28;96695;-80
2023/12/17 13:57:18;;;;;;;3.97;2.65;;;;;;;8.67;70.63;102454.00;10271030;28;96688;-79
2023/12/17 14:02:25;;;;;;;5.30;3.05;;;;;;;8.63;71.33;102469.75;10262685;28;97053;-80
2023/12/17 14:07:30;;;;;;;7.32;3.53;;;;;;;8.62;71.17;102452.25;10259327;28;98522;-80
2023/12/17 14:12:33;;;;;;;6.57;3.08;;;;;;;8.60;70.67;102444.34;10267035;28;98673;-80
2023/12/17 14:17:37;;;;;;;5.43;3.25;;;;;;;8.49;71.49;102448.69;10252054;28;96787;-81
2023/12/17 14:22:42;;;;;;;4.03;2.67;;;;;;;8.57;71.82;102433.84;10249190;28;97487;-80
2023/12/17 14:27:45;;;;;;;3.58;2.60;;;;;;;8.58;71.13;102435.63;10257530;28;97341;-83
2023/12/17 14:32:50;;;;;;;6.25;3.10;;;;;;;8.60;71.14;102438.25;10286280;28;96789;-83
2023/12/17 14:37:55;;;;;;;3.97;2.67;;;;;;;8.49;71.71;102439.94;10279881;28;96983;-82
2023/12/17 14:42:58;;;;;;;5.65;2.80;;;;;;;8.91;70.78;102427.81;10261469;28;97207;-82
2023/12/17 14:48:02;;;;;;;4.60;2.95;;;;;;;10.09;68.06;102433.03;10256831;28;98440;-83
2023/12/17 14:53:08;;;;;;;4.82;2.70;;;;;;;10.57;65.88;102431.97;10287821;28;96690;-76
2023/12/17 14:58:12;;;;;;;4.40;2.35;;;;;;;11.24;63.92;102439.47;10260022;28;97224;-76
2023/12/17 15:03:18;;;;;;;4.35;2.60;;;;;;;11.41;62.31;102443.75;10256530;28;96858;-76
2023/12/17 15:08:23;;;;;;;4.03;2.63;;;;;;;11.26;62.95;102437.69;10256945;28;98877;-79
2023/12/17 15:13:28;;;;;;;4.07;2.53;;;;;;;11.52;61.92;102431.31;10255748;28;96793;-79
2023/12/17 15:18:31;;;;;;;5.55;2.90;;;;;;;11.29;62.02;102437.66;10253651;28;98285;-80
2023/12/17 15:23:36;;;;;;;4.68;2.70;;;;;;;11.21;62.37;102438.63;10273281;28;98066;-76
2023/12/17 15:28:41;;;;;;;3.55;2.38;;;;;;;11.30;61.75;102428.88;10269805;28;97123;-80
2023/12/17 15:33:45;;;;;;;4.43;3.00;;;;;;;11.12;61.96;102433.41;10268889;28;98059;-80
2023/12/17 15:38:50;;;;;;;4.18;2.58;;;;;;;11.07;62.13;102425.50;10271797;28;99277;-78
2023/12/17 15:43:53;;;;;;;5.82;3.17;;;;;;;11.00;62.57;102429.06;10280574;28;96896;-80
2023/12/17 15:48:57;;;;;;;4.22;2.83;;;;;;;10.87;63.20;102434.44;10289389;28;98417;-81
2023/12/17 15:54:02;;;;;;;7.65;4.57;;;;;;;10.42;63.77;102437.31;10309769;28;97274;-80
2023/12/17 15:59:07;;;;;;;4.57;2.72;;;;;;;10.37;64.54;102433.81;10297079;28;99040;-79
2023/12/17 16:09:19;;;;;;;4.53;2.72;;;;;;;9.53;67.10;102448.91;10247520;28;97153;-81
2023/12/17 16:14:25;;;;;;;4.45;2.78;;;;;;;9.13;68.15;102452.34;10251023;28;97652;-82
2023/12/17 16:19:31;;;;;;;3.78;2.95;;;;;;;8.69;69.20;102451.38;10252253;28;96582;-82
2023/12/17 16:24:36;;;;;;;4.28;3.15;;;;;;;8.38;70.37;102465.25;10251820;28;96615;-82
2023/12/17 16:29:41;;;;;;;6.05;3.13;;;;;;;8.20;71.84;102470.41;10251697;28;97525;-82
2023/12/17 16:34:44;;;;;;;5.40;3.15;;;;;;;8.06;71.91;102470.34;10251276;28;96879;-82
2023/12/17 16:39:49;;;;;;;6.88;3.63;;;;;;;7.97;72.65;102473.78;10251345;28;96571;-82
2023/12/17 16:44:53;;;;;;;5.10;3.17;;;;;;;7.91;72.45;102486.84;10251892;28;96767;-82
2023/12/17 16:49:58;;;;;;;6.13;3.60;;;;;;;7.82;73.28;102502.50;10250624;28;96715;-82
2023/12/17 16:55:03;;;;;;;8.82;3.30;;;;;;;7.70;73.99;102502.41;10251182;28;97102;-82
2023/12/17 17:00:09;;;;;;;5.43;3.70;;;;;;;7.63;73.88;102516.31;10249109;28;97351;-81
2023/12/17 17:05:13;;;;;;;4.78;3.03;;;;;;;7.68;73.60;102516.38;10248955;28;96828;-82
2023/12/17 17:10:18;;;;;;;5.63;3.13;;;;;;;7.67;73.98;102525.09;10250163;28;96619;-82
2023/12/17 17:15:21;;;;;;;6.22;3.90;;;;;;;7.58;74.43;102520.66;10249860;28;97174;-82
2023/12/17 17:20:27;;;;;;;6.95;3.15;;;;;;;7.60;74.50;102536.38;10248975;28;97364;-82
2023/12/17 17:25:32;;;;;;;4.18;2.60;;;;;;;7.52;74.38;102536.34;10249701;28;96674;-82
2023/12/17 17:30:36;;;;;;;5.40;3.42;;;;;;;7.50;74.98;102531.94;10249857;28;96664;-82
2023/12/17 17:35:40;;;;;;;4.55;3.22;;;;;;;7.53;74.44;102534.56;10250101;28;96580;-82
2023/12/17 17:40:44;;;;;;;5.85;3.08;;;;;;;7.41;74.88;102542.31;10248781;28;96677;-81
2023/12/17 17:45:48;;;;;;;6.13;3.00;;;;;;;7.41;75.32;102537.06;10249035;28;96671;-82
2023/12/17 17:50:51;;;;;;;5.85;3.08;;;;;;;7.41;75.64;102535.34;10247792;28;96625;-82
2023/12/17 17:55:56;;;;;;;5.32;3.40;;;;;;;7.40;75.37;102540.56;10248154;28;96701;-82
2023/12/17 18:01:00;;;;;;;6.32;3.13;;;;;;;7.38;75.52;102537.06;10248400;28;97245;-82
2023/12/17 18:06:04;;;;;;;6.10;3.78;;;;;;;7.36;75.86;102544.00;10248064;28;96853;-82
2023/12/17 18:11:09;;;;;;;6.20;3.80;;;;;;;7.32;75.78;102545.72;10247962;28;97322;-82
2023/12/17 18:16:18;;;;;;;7.38;3.33;;;;;;;7.27;76.05;102538.72;10248726;28;97229;-82
2023/12/17 18:21:22;;;;;;;5.28;2.88;;;;;;;7.29;75.74;102547.44;10248472;28;97472;-82
2023/12/17 18:26:27;;;;;;;5.60;3.30;;;;;;;7.25;75.71;102548.28;10248996;28;97273;-82
2023/12/17 18:31:31;;;;;;;5.32;3.30;;;;;;;7.27;75.92;102538.72;10253498;28;96790;-82
2023/12/17 18:36:34;;;;;;;6.10;3.60;;;;;;;7.23;76.27;102540.41;10261048;28;96631;-82
2023/12/17 18:41:40;;;;;;;5.13;3.03;;;;;;;7.21;76.13;102530.78;10260538;28;96863;-82
2023/12/17 18:46:44;;;;;;;6.55;3.70;;;;;;;7.25;75.78;102545.66;10260371;28;96763;-82
2023/12/17 18:51:48;;;;;;;7.13;3.53;;;;;;;7.15;76.28;102525.47;10261421;28;96822;-82
2023/12/17 18:56:53;;;;;;;6.22;3.40;;;;;;;7.15;76.01;102531.56;10260323;28;96773;-82
2023/12/17 19:01:56;;;;;;;;;;;;;;;7.15;76.20;102526.34;10260508;28;96705;-82
2023/12/17 19:07:02;;;;;;;7.40;3.50;;;;;;;7.08;76.37;102528.91;10259850;28;97387;-81
2023/12/17 19:12:08;;;;;;;5.22;3.35;;;;;;;7.07;75.98;102529.75;10259868;28;97438;-81
2023/12/17 19:17:15;;;;;;;7.57;4.28;;;;;;;7.04;76.28;102520.13;10261202;28;96848;-82
2023/12/17 19:22:21;;;;;;;6.07;3.67;;;;;;;7.04;76.34;102530.59;10259507;28;97431;-82
2023/12/17 19:27:26;;;;;;;6.57;3.20;;;;;;;6.96;76.33;102531.38;10260257;28;97159;-82
2023/12/17 19:32:29;;;;;;;;;;;;;;;6.99;76.81;102532.25;10259402;28;96574;-82
2023/12/17 19:37:33;;;;;;;9.68;3.65;;;;;;;6.96;76.32;102526.16;10259924;28;97098;-82
2023/12/17 19:42:39;;;;;;;6.30;3.40;;;;;;;6.88;76.30;102535.63;10256002;28;96625;-82
2023/12/17 19:47:44;;;;;;;5.65;3.33;;;;;;;6.89;76.42;102534.78;10253329;28;96852;-82
2023/12/17 19:52:48;;;;;;;7.28;3.42;;;;;;;6.91;76.73;102533.03;10252255;28;96726;-82
2023/12/17 19:57:53;;;;;;;6.10;2.97;;;;;;;6.87;77.00;102524.28;10250328;28;96813;-81
2023/12/17 20:02:56;;;;;;;7.03;3.55;;;;;;;6.87;76.58;102524.28;10253261;28;97078;-82
2023/12/17 20:08:00;;;;;;;7.22;3.60;;;;;;;6.89;76.98;102527.78;10252278;28;97505;-82
2023/12/17 20:13:05;;;;;;;6.55;4.30;;;;;;;6.82;76.32;102513.78;10252155;28;96883;-82
2023/12/17 20:18:15;;;;;;;7.25;3.47;;;;;;;6.80;76.42;102512.84;10251926;28;97059;-82
2023/12/17 20:23:19;;;;;;;6.88;3.70;;;;;;;6.79;76.75;102526.78;10251263;28;96843;-82
2023/12/17 20:28:24;;;;;;;5.57;3.20;;;;;;;6.74;76.36;102522.34;10251603;28;97398;-81
2023/12/17 20:33:28;;;;;;;5.47;3.10;;;;;;;6.73;76.64;102513.63;10251165;28;96782;-82
2023/12/17 20:38:33;;;;;;;7.70;4.35;;;;;;;6.80;76.54;102519.84;10251043;28;97558;-81
2023/12/17 20:43:38;;;;;;;6.50;3.43;;;;;;;6.72;76.93;102508.38;10250866;28;96969;-82
2023/12/17 20:48:41;;;;;;;;;;;;;;;6.77;76.79;102517.16;10251298;28;97386;-81
2023/12/17 20:53:45;;;;;;;5.88;3.88;;;;;;;6.69;77.12;102511.84;10249893;28;97263;-81
2023/12/17 20:58:51;;;;;;;6.50;3.90;;;;;;;6.69;76.62;102511.84;10251222;28;96694;-81
2023/12/17 21:03:57;;;;;;;9.23;4.13;;;;;;;6.66;76.95;102513.56;10249402;28;96750;-81
2023/12/17 21:09:01;;;;;;;5.50;3.55;;;;;;;6.64;76.69;102525.72;10249916;28;96911;-82
2023/12/17 21:14:06;;;;;;;6.63;3.83;;;;;;;6.62;76.75;102530.06;10247583;28;96750;-81
2023/12/17 21:19:09;;;;;;;9.10;3.28;;;;;;;6.61;77.01;102529.16;10249330;28;96793;-82
2023/12/17 21:24:14;;;;;;;8.30;4.30;;;;;;;6.56;76.57;102520.38;10249911;28;96891;-82
2023/12/17 21:29:19;;;;;;;5.77;3.50;;;;;;;6.56;76.39;102509.94;10249325;28;96736;-81
2023/12/17 21:34:22;;;;;;;6.28;3.70;;;;;;;6.54;76.69;102531.72;10249310;28;97022;-82
2023/12/17 21:39:26;;;;;;;5.75;3.75;;;;;;;6.56;76.89;102551.78;10209011;28;97623;-82
2023/12/17 21:44:31;;;;;;;7.40;3.75;;;;;;;6.52;76.29;102549.13;10208873;28;97307;-81
2023/12/17 21:49:36;;;;;;;7.22;3.78;;;;;;;6.54;76.68;102550.88;10227995;28;96718;-81
2023/12/17 21:54:40;;;;;;;8.45;4.10;;;;;;;6.49;76.73;102555.16;10248482;28;96649;-82
2023/12/17 21:59:45;;;;;;;11.38;4.20;;;;;;;6.48;76.08;102560.38;10249202;28;96709;-81
2023/12/17 22:04:49;;;;;;;;;;;;;;;6.47;76.14;102561.25;10287441;28;97243;-81
2023/12/17 22:09:55;;;;;;;5.45;2.95;;;;;;;6.47;76.15;102556.88;10275947;28;96734;-82
2023/12/17 22:15:00;;;;;;;5.38;3.15;;;;;;;6.43;76.03;102556.81;10248450;28;96683;-81
2023/12/17 22:20:04;;;;;;;7.45;3.78;;;;;;;6.40;76.62;102554.19;10248284;28;97175;-81
2023/12/17 22:25:08;;;;;;;6.85;3.67;;;;;;;6.37;76.43;102548.88;10248148;28;97051;-82
2023/12/17 22:30:14;;;;;;;7.13;3.57;;;;;;;6.37;76.85;102555.00;10247789;28;97108;-81
2023/12/17 22:35:18;;;;;;;7.68;3.75;;;;;;;6.34;76.63;102554.97;10248138;28;97118;-81
2023/12/17 22:40:22;;;;;;;5.13;3.05;;;;;;;6.33;76.80;102562.78;10248459;28;97743;-81
2023/12/17 22:45:26;;;;;;;5.57;2.67;;;;;;;6.30;76.61;102549.69;10247146;28;97391;-81
2023/12/17 22:50:30;;;;;;;9.30;4.75;;;;;;;6.27;77.05;102558.34;10247197;28;96693;-82
2023/12/17 22:55:33;;;;;;;5.43;2.90;;;;;;;6.26;76.95;102572.28;10246663;28;97002;-82
2023/12/17 23:00:38;;;;;;;6.30;3.50;;;;;;;6.21;77.29;102571.31;10234862;28;96819;-82
2023/12/17 23:05:43;;;;;;;5.45;3.08;;;;;;;6.21;76.87;102560.00;10246923;28;97319;-81
2023/12/17 23:10:47;;;;;;;7.13;3.50;;;;;;;6.25;76.55;102574.84;10246916;28;96769;-82
2023/12/17 23:15:52;;;;;;;7.40;3.55;;;;;;;6.18;76.97;102567.78;10246719;28;96870;-81
2023/12/17 23:20:56;;;;;;;;;;;;;;;6.14;76.64;102572.09;10253675;28;97434;-82
2023/12/17 23:25:59;;;;;;;7.25;3.20;;;;;;;6.11;77.06;102585.09;10253699;28;97219;-82
2023/12/17 23:31:04;;;;;;;6.10;3.10;;;;;;;6.10;77.16;102579.84;10254396;28;96670;-81
2023/12/17 23:36:08;;;;;;;6.47;3.00;;;;;;;6.09;76.59;102580.72;10253036;28;97410;-82
2023/12/17 23:41:12;;;;;;;5.82;2.97;;;;;;;6.09;76.51;102589.41;10258276;28;96681;-81
2023/12/17 23:46:18;;;;;;;7.82;3.30;;;;;;;6.05;76.07;102565.84;10265746;28;96872;-82